Time;durP1;ratioP1;P1;durP2;ratioP2;P2;SDS_P1;SDS_P2;PMS_P1;PMS_P2;Temp;Humidity;BMP_temperature;BMP_pressure;BME280_temperature;BME280_humidity;BME280_pressure;Samples;Min_cycle;Max_cycle;Signal;HPM_P1;HPM_P2
2022/03/24 00:00:16;;;;;;;19.35;9.73;;;7.40;90.80;;;;;;5070820;28;20049;-83
2022/03/24 00:02:41;;;;;;;17.27;9.07;;;7.40;90.60;;;;;;5055430;28;20078;-82
2022/03/24 00:05:08;;;;;;;14.20;8.38;;;7.30;90.90;;;;;;5054668;28;20063;-82
2022/03/24 00:07:35;;;;;;;18.98;9.45;;;7.20;90.60;;;;;;5073389;28;20052;-84
2022/03/24 00:10:00;;;;;;;19.42;9.07;;;7.20;91.30;;;;;;5047716;28;20020;-86
2022/03/24 00:12:27;;;;;;;17.83;8.75;;;7.20;92.10;;;;;;5074483;28;20032;-86
2022/03/24 00:14:53;;;;;;;15.80;9.13;;;7.10;92.00;;;;;;5074332;28;20020;-80
2022/03/24 00:17:18;;;;;;;18.20;9.10;;;7.20;92.10;;;;;;5073662;28;20017;-82
2022/03/24 00:19:44;;;;;;;18.40;10.05;;;7.20;91.70;;;;;;5056683;28;20055;-81
2022/03/24 00:22:10;;;;;;;15.23;9.65;;;7.10;91.90;;;;;;5055996;28;20058;-81
2022/03/24 00:24:37;;;;;;;18.00;9.70;;;7.20;92.20;;;;;;5057019;28;20033;-83
2022/03/24 00:27:03;;;;;;;18.98;10.00;;;7.20;92.30;;;;;;5056496;28;20021;-82
2022/03/24 00:29:29;;;;;;;19.58;9.95;;;7.10;92.20;;;;;;5057186;28;20047;-82
2022/03/24 00:31:55;;;;;;;18.67;9.30;;;7.00;92.60;;;;;;5057053;28;20449;-82
2022/03/24 00:34:20;;;;;;;17.65;9.38;;;7.00;92.70;;;;;;5074155;28;20021;-83
2022/03/24 00:36:46;;;;;;;17.98;9.25;;;7.00;92.70;;;;;;5056779;28;20016;-83
2022/03/24 00:39:11;;;;;;;17.40;9.13;;;6.90;92.90;;;;;;5056246;28;20020;-83
2022/03/24 00:41:37;;;;;;;20.08;9.80;;;6.80;93.20;;;;;;5074429;28;20472;-83
2022/03/24 00:44:03;;;;;;;19.73;10.07;;;6.80;93.40;;;;;;5073994;28;20036;-85
2022/03/24 00:46:31;;;;;;;18.65;9.68;;;6.80;93.20;;;;;;5056850;28;20453;-84
2022/03/24 00:48:57;;;;;;;19.60;10.10;;;6.80;93.30;;;;;;5074448;28;20013;-85
2022/03/24 00:51:23;;;;;;;18.92;9.30;;;6.70;93.40;;;;;;5056637;28;20028;-85
2022/03/24 00:53:49;;;;;;;18.73;9.73;;;6.50;94.00;;;;;;5074568;28;20078;-85
2022/03/24 00:56:15;;;;;;;19.77;10.37;;;6.50;94.40;;;;;;5073822;28;20024;-84
2022/03/24 00:58:41;;;;;;;19.53;10.47;;;6.40;94.60;;;;;;5056717;28;20048;-84
2022/03/24 01:01:11;;;;;;;21.58;10.30;;;6.40;94.60;;;;;;5056012;28;20063;-85
2022/03/24 01:03:38;;;;;;;19.85;10.27;;;6.50;94.60;;;;;;5056359;28;20028;-85
2022/03/24 01:06:04;;;;;;;17.53;9.80;;;6.40;94.50;;;;;;5055966;28;20063;-84
2022/03/24 01:08:31;;;;;;;25.70;10.93;;;6.40;94.60;;;;;;5056279;28;20035;-85
2022/03/24 01:10:57;;;;;;;19.17;10.23;;;6.40;94.50;;;;;;5073818;28;20074;-85
2022/03/24 01:13:22;;;;;;;20.10;10.17;;;6.40;94.30;;;;;;5055537;28;20147;-85
2022/03/24 01:15:49;;;;;;;22.53;10.33;;;6.30;94.60;;;;;;5056652;28;20060;-84
2022/03/24 01:18:16;;;;;;;19.17;9.80;;;6.30;94.70;;;;;;5073419;28;20023;-84
2022/03/24 01:20:42;;;;;;;19.13;9.40;;;6.30;94.60;;;;;;5074086;28;20025;-85
2022/03/24 01:23:08;;;;;;;17.53;9.07;;;6.20;95.00;;;;;;5073640;28;20036;-85
2022/03/24 01:25:34;;;;;;;18.77;9.43;;;6.20;94.90;;;;;;5074041;28;20028;-85
2022/03/24 01:28:00;;;;;;;18.43;8.77;;;6.30;94.70;;;;;;5055328;28;20030;-83
2022/03/24 01:30:26;;;;;;;19.57;9.97;;;6.20;94.80;;;;;;5056264;28;20016;-86
2022/03/24 01:32:52;;;;;;;17.47;9.67;;;6.30;95.10;;;;;;5056491;28;20028;-85
2022/03/24 01:35:18;;;;;;;18.00;9.47;;;6.30;94.90;;;;;;5055790;28;20017;-84
2022/03/24 01:37:44;;;;;;;19.67;9.80;;;6.20;94.80;;;;;;5074086;28;20017;-85
2022/03/24 01:40:12;;;;;;;18.30;9.33;;;6.30;94.70;;;;;;5073563;28;20060;-82
2022/03/24 01:42:39;;;;;;;18.27;9.03;;;6.30;94.70;;;;;;5055973;28;20020;-82
2022/03/24 01:45:07;;;;;;;17.20;9.53;;;6.30;95.00;;;;;;5055442;28;20029;-82
2022/03/24 01:47:34;;;;;;;20.00;9.27;;;6.10;95.20;;;;;;5073724;28;20039;-82
2022/03/24 01:50:00;;;;;;;18.97;9.93;;;6.10;95.60;;;;;;5056040;28;20028;-82
2022/03/24 01:52:26;;;;;;;19.47;9.53;;;6.10;95.70;;;;;;5073422;28;20024;-81
2022/03/24 01:54:54;;;;;;;20.17;9.10;;;6.00;95.90;;;;;;5056084;28;20032;-82
2022/03/24 01:57:21;;;;;;;21.50;9.70;;;6.00;96.20;;;;;;5055384;28;20052;-82
2022/03/24 01:59:48;;;;;;;18.47;9.90;;;6.00;96.30;;;;;;5073615;28;20016;-82
2022/03/24 02:02:15;;;;;;;18.33;9.73;;;6.10;96.20;;;;;;5055198;28;20369;-82
2022/03/24 02:04:40;;;;;;;19.10;10.43;;;6.10;95.70;;;;;;5073658;28;20059;-82
2022/03/24 02:07:07;;;;;;;21.73;10.57;;;6.00;95.90;;;;;;5055226;28;20074;-81
2022/03/24 02:09:34;;;;;;;19.57;9.40;;;6.00;96.10;;;;;;5073490;28;20020;-82
2022/03/24 02:12:01;;;;;;;18.07;9.20;;;6.00;96.10;;;;;;5055777;28;20075;-82
2022/03/24 02:14:29;;;;;;;18.17;9.57;;;6.20;96.10;;;;;;5073001;28;20016;-82
2022/03/24 02:16:55;;;;;;;18.57;9.80;;;6.20;96.10;;;;;;5055500;28;20027;-82
2022/03/24 02:19:23;;;;;;;19.80;9.30;;;6.10;96.10;;;;;;5055070;28;20044;-83
2022/03/24 02:21:52;;;;;;;18.83;9.97;;;6.00;96.80;;;;;;5055251;28;20060;-82
2022/03/24 02:24:20;;;;;;;21.13;10.07;;;6.00;96.90;;;;;;5054964;28;20025;-82
2022/03/24 02:26:46;;;;;;;18.30;9.37;;;5.90;97.20;;;;;;5073200;28;20047;-82
2022/03/24 02:29:14;;;;;;;17.10;9.20;;;5.90;97.40;;;;;;5054977;28;20044;-81
2022/03/24 02:31:43;;;;;;;15.80;9.00;;;5.80;97.20;;;;;;5055719;28;20025;-82
2022/03/24 02:34:54;;;;;;;21.90;10.43;;;5.80;97.50;;;;;;5054877;28;20442;-82
2022/03/24 02:37:01;;;;;;;19.02;9.63;;;5.70;97.70;;;;;;5059416;28;20060;-81
2022/03/24 02:39:28;;;;;;;18.60;9.73;;;5.70;97.70;;;;;;5056866;28;20028;-81
2022/03/24 02:41:55;;;;;;;20.70;10.07;;;5.60;97.60;;;;;;5076703;28;20024;-82
2022/03/24 02:44:30;;;;;;;17.17;9.33;;;5.60;97.80;;;;;;5058635;28;20369;-82
2022/03/24 02:46:57;;;;;;;19.50;9.97;;;5.50;98.20;;;;;;5076589;28;20017;-81
2022/03/24 02:49:25;;;;;;;18.93;9.30;;;5.50;98.20;;;;;;5075993;28;20027;-81
2022/03/24 02:51:52;;;;;;;20.30;9.80;;;5.50;98.20;;;;;;5076453;28;20040;-81
2022/03/24 02:54:18;;;;;;;18.23;9.77;;;5.60;97.80;;;;;;5058632;28;20021;-81
2022/03/24 02:56:44;;;;;;;18.77;9.83;;;5.50;97.80;;;;;;5076598;28;20016;-80
2022/03/24 02:59:10;;;;;;;19.67;9.90;;;5.60;97.80;;;;;;5075495;28;20252;-80
2022/03/24 03:01:41;;;;;;;18.50;10.47;;;5.50;98.00;;;;;;5058664;28;20021;-81
2022/03/24 03:04:08;;;;;;;20.23;9.77;;;5.50;97.90;;;;;;5058122;28;20119;-80
2022/03/24 03:06:34;;;;;;;21.00;9.70;;;5.40;97.80;;;;;;5058678;28;20389;-82
2022/03/24 03:09:01;;;;;;;22.27;11.27;;;5.40;98.00;;;;;;5075850;28;20024;-82
2022/03/24 03:11:30;;;;;;;25.83;11.23;;;5.40;98.00;;;;;;5058060;28;20119;-83
2022/03/24 03:13:56;;;;;;;19.73;11.13;;;5.30;98.20;;;;;;5076229;28;20357;-83
2022/03/24 03:16:22;;;;;;;18.63;9.90;;;5.30;98.30;;;;;;5075717;28;20464;-85
2022/03/24 03:18:48;;;;;;;21.90;10.20;;;5.30;98.20;;;;;;5057913;28;20048;-81
2022/03/24 03:21:14;;;;;;;19.03;9.70;;;5.40;98.00;;;;;;5057660;28;20024;-81
2022/03/24 03:23:40;;;;;;;21.00;10.10;;;5.40;97.90;;;;;;5058073;28;20037;-82
2022/03/24 03:26:05;;;;;;;19.43;10.33;;;5.40;97.70;;;;;;5058249;28;20020;-84
2022/03/24 03:28:32;;;;;;;18.40;10.17;;;5.40;97.90;;;;;;5057559;28;20020;-84
2022/03/24 03:30:58;;;;;;;21.33;9.57;;;5.30;97.80;;;;;;5075794;28;20016;-83
2022/03/24 03:33:24;;;;;;;21.13;10.67;;;5.30;98.00;;;;;;5075201;28;20024;-80
2022/03/24 03:35:51;;;;;;;19.10;10.43;;;5.20;98.20;;;;;;5075442;28;20062;-82
2022/03/24 03:38:18;;;;;;;18.00;9.53;;;5.20;98.30;;;;;;5057451;28;20028;-84
2022/03/24 03:40:44;;;;;;;20.17;9.93;;;5.00;98.70;;;;;;5075601;28;20023;-83
2022/03/24 03:43:10;;;;;;;20.17;10.00;;;5.00;98.90;;;;;;5057613;28;20028;-84
2022/03/24 03:45:36;;;;;;;19.37;9.50;;;4.90;98.90;;;;;;5058298;28;20119;-84
2022/03/24 03:48:02;;;;;;;19.20;9.93;;;5.00;98.90;;;;;;5075526;28;20048;-85
2022/03/24 03:50:28;;;;;;;20.17;9.90;;;5.00;98.50;;;;;;5074360;28;20381;-85
2022/03/24 03:52:54;;;;;;;18.27;9.63;;;4.90;98.70;;;;;;5058188;28;20093;-85
2022/03/24 03:55:20;;;;;;;18.53;10.13;;;5.00;98.70;;;;;;5057205;28;20115;-85
2022/03/24 03:57:46;;;;;;;17.23;9.93;;;4.90;98.50;;;;;;5075438;28;20427;-85
2022/03/24 04:02:57;;;;;;;20.13;10.63;;;4.70;99.20;;;;;;5075273;28;20126;-85
2022/03/24 04:05:25;;;;;;;17.97;9.63;;;4.70;99.40;;;;;;5056950;28;20060;-84
2022/03/24 04:07:51;;;;;;;19.03;9.30;;;4.60;99.40;;;;;;5074872;28;20020;-85
2022/03/24 04:10:17;;;;;;;20.80;9.90;;;4.60;99.40;;;;;;5056774;28;20066;-85
2022/03/24 04:12:43;;;;;;;17.87;9.67;;;4.60;99.60;;;;;;5056783;28;20047;-85
2022/03/24 04:15:10;;;;;;;20.67;10.00;;;4.60;99.40;;;;;;5074790;28;20055;-84
2022/03/24 04:17:36;;;;;;;22.67;9.83;;;4.70;99.40;;;;;;5057308;28;20025;-84
2022/03/24 04:20:03;;;;;;;20.33;10.00;;;4.60;99.40;;;;;;5074979;28;20071;-84
2022/03/24 04:22:28;;;;;;;17.27;9.13;;;4.70;99.50;;;;;;5073993;28;20024;-84
2022/03/24 04:24:54;;;;;;;18.67;10.17;;;4.70;99.20;;;;;;5057220;28;20043;-85
2022/03/24 04:27:20;;;;;;;17.47;10.00;;;4.80;99.30;;;;;;5074317;28;20028;-86
2022/03/24 04:29:45;;;;;;;17.63;9.73;;;4.80;99.00;;;;;;5057172;28;20025;-84
2022/03/24 04:32:11;;;;;;;16.80;9.00;;;4.70;98.80;;;;;;5056842;28;20070;-80
2022/03/24 04:34:37;;;;;;;17.40;9.10;;;4.60;99.40;;;;;;5057102;28;20017;-83
2022/03/24 04:37:03;;;;;;;18.87;9.73;;;4.50;99.70;;;;;;5074465;28;20017;-83
2022/03/24 04:39:29;;;;;;;18.03;9.73;;;4.40;99.60;;;;;;5073979;28;20031;-83
2022/03/24 04:41:55;;;;;;;18.40;9.60;;;4.40;99.60;;;;;;5074196;28;20016;-83
2022/03/24 04:44:24;;;;;;;16.33;9.27;;;4.40;99.70;;;;;;5056135;28;20092;-83
2022/03/24 04:46:50;;;;;;;19.23;9.60;;;4.40;99.60;;;;;;5074450;28;20334;-83
2022/03/24 04:49:16;;;;;;;19.17;10.03;;;4.30;99.70;;;;;;5056104;28;20020;-82
2022/03/24 04:51:42;;;;;;;20.27;9.50;;;4.20;99.90;;;;;;5056028;28;20021;-83
2022/03/24 04:54:08;;;;;;;20.43;9.87;;;4.20;99.90;;;;;;5056837;28;20123;-83
2022/03/24 04:56:34;;;;;;;18.77;9.87;;;4.10;99.90;;;;;;5056205;28;20020;-83
2022/03/24 04:59:00;;;;;;;17.73;9.37;;;4.10;99.90;;;;;;5056781;28;20035;-82
2022/03/24 05:01:25;;;;;;;15.53;9.07;;;4.10;99.90;;;;;;5073664;28;20442;-83
2022/03/24 05:03:51;;;;;;;20.40;9.60;;;4.20;99.90;;;;;;5073286;28;20032;-82
2022/03/24 05:06:17;;;;;;;18.47;9.23;;;4.30;99.90;;;;;;5073702;28;20028;-82
2022/03/24 05:08:42;;;;;;;16.07;9.03;;;4.40;99.90;;;;;;5074099;28;20445;-82
2022/03/24 05:11:08;;;;;;;18.13;9.80;;;4.40;99.70;;;;;;5073976;28;20093;-82
2022/03/24 05:13:34;;;;;;;18.03;9.37;;;4.40;99.90;;;;;;5055931;28;20170;-81
2022/03/24 05:15:59;;;;;;;19.20;9.50;;;4.30;99.90;;;;;;5073748;28;20028;-81
2022/03/24 05:18:25;;;;;;;17.73;9.93;;;4.20;99.90;;;;;;5073215;28;20472;-83
2022/03/24 05:20:51;;;;;;;20.33;10.33;;;4.20;99.90;;;;;;5056318;28;20075;-81
2022/03/24 05:23:17;;;;;;;21.70;10.17;;;4.10;99.90;;;;;;5073590;28;20104;-81
2022/03/24 05:25:47;;;;;;;18.03;9.80;;;4.10;99.90;;;;;;5056181;28;20056;-82
2022/03/24 05:28:14;;;;;;;20.10;9.57;;;4.00;99.90;;;;;;5073970;28;20016;-83
2022/03/24 05:30:39;;;;;;;19.37;9.87;;;3.90;99.90;;;;;;5055950;28;20108;-82
2022/03/24 05:33:05;;;;;;;18.90;9.73;;;3.90;99.90;;;;;;5056233;28;20067;-82
2022/03/24 05:35:35;;;;;;;18.10;9.10;;;3.90;99.90;;;;;;5073396;28;20021;-83
2022/03/24 05:38:04;;;;;;;19.30;9.50;;;3.90;99.90;;;;;;5056002;28;20119;-83
2022/03/24 05:40:31;;;;;;;21.90;9.23;;;3.90;99.90;;;;;;5055462;28;20062;-81
2022/03/24 05:42:56;;;;;;;17.93;8.87;;;4.00;99.90;;;;;;5055931;28;20029;-81
2022/03/24 05:45:22;;;;;;;18.77;9.53;;;4.10;99.90;;;;;;5073166;28;20488;-81
2022/03/24 05:47:48;;;;;;;19.60;9.10;;;4.10;99.90;;;;;;5055650;28;20107;-82
2022/03/24 05:50:13;;;;;;;22.13;9.13;;;4.10;99.90;;;;;;5055734;28;20021;-82
2022/03/24 05:52:40;;;;;;;19.00;8.90;;;4.20;99.90;;;;;;5073035;28;20040;-82
2022/03/24 05:55:06;;;;;;;17.60;9.40;;;4.20;99.90;;;;;;5055477;28;20021;-82
2022/03/24 05:57:32;;;;;;;20.30;9.83;;;4.20;99.90;;;;;;5073140;28;20025;-84
2022/03/24 05:59:58;;;;;;;18.63;9.27;;;4.30;99.90;;;;;;5074416;28;20013;-84
2022/03/24 06:02:25;;;;;;;17.50;9.33;;;4.20;99.90;;;;;;5055607;28;20036;-84
2022/03/24 06:04:53;;;;;;;16.83;9.20;;;4.20;99.90;;;;;;5055497;28;20056;-84
2022/03/24 06:07:19;;;;;;;18.57;9.50;;;4.20;99.90;;;;;;5054919;28;20017;-84
2022/03/24 06:09:45;;;;;;;19.40;9.77;;;4.10;99.90;;;;;;5055287;28;20036;-84
2022/03/24 06:12:13;;;;;;;16.97;8.90;;;4.10;99.90;;;;;;5055248;28;20020;-84
2022/03/24 06:14:42;;;;;;;20.77;9.50;;;4.20;99.90;;;;;;5057327;28;20035;-83
2022/03/24 06:17:09;;;;;;;19.53;9.07;;;4.30;99.90;;;;;;5059440;28;20029;-84
2022/03/24 06:19:36;;;;;;;21.40;10.27;;;4.30;99.90;;;;;;5055469;28;20390;-83
2022/03/24 06:22:05;;;;;;;19.53;9.30;;;4.30;99.90;;;;;;5051328;28;20138;-83
2022/03/24 06:24:32;;;;;;;19.57;9.40;;;4.30;99.90;;;;;;5054001;28;20028;-83
2022/03/24 06:26:58;;;;;;;18.03;9.63;;;4.30;99.90;;;;;;5058519;28;20025;-83
2022/03/24 06:29:24;;;;;;;22.20;10.40;;;4.40;99.90;;;;;;5054816;28;20045;-84
2022/03/24 06:31:50;;;;;;;21.53;10.53;;;4.40;99.90;;;;;;5074993;28;20064;-83
2022/03/24 06:34:16;;;;;;;22.37;11.57;;;4.50;99.90;;;;;;5076512;28;20067;-83
2022/03/24 06:36:42;;;;;;;22.93;10.90;;;4.60;99.90;;;;;;5074341;28;20051;-83
2022/03/24 06:39:08;;;;;;;18.43;9.80;;;4.70;99.90;;;;;;5058805;28;20067;-84
2022/03/24 06:41:35;;;;;;;23.50;10.47;;;4.80;99.90;;;;;;5052290;28;20037;-82
2022/03/24 06:44:04;;;;;;;20.53;10.70;;;4.80;99.90;;;;;;5058785;28;20097;-82
2022/03/24 06:46:29;;;;;;;18.53;10.20;;;4.90;99.90;;;;;;5061938;28;20025;-83
2022/03/24 06:48:55;;;;;;;20.80;10.47;;;4.90;99.90;;;;;;5067090;28;20040;-83
2022/03/24 06:51:21;;;;;;;19.37;10.43;;;5.00;99.90;;;;;;5057853;28;20040;-82
2022/03/24 06:53:47;;;;;;;18.70;10.30;;;5.00;99.90;;;;;;5069930;28;20028;-84
2022/03/24 06:56:12;;;;;;;23.57;10.43;;;5.10;99.90;;;;;;5059607;28;20107;-83
2022/03/24 06:58:38;;;;;;;19.30;10.37;;;5.10;99.90;;;;;;5060603;28;20466;-83
2022/03/24 07:01:04;;;;;;;21.67;10.57;;;5.10;99.90;;;;;;5068280;28;20025;-83
2022/03/24 07:03:30;;;;;;;21.13;10.33;;;5.20;99.90;;;;;;5055157;28;20040;-81
2022/03/24 07:05:55;;;;;;;20.43;11.30;;;5.30;99.90;;;;;;5067873;28;20025;-81
2022/03/24 07:08:23;;;;;;;20.17;11.07;;;5.30;99.90;;;;;;5060353;28;20515;-81
2022/03/24 07:10:49;;;;;;;19.07;10.90;;;5.40;99.90;;;;;;5059435;28;20108;-82
2022/03/24 07:13:16;;;;;;;22.50;9.37;;;5.40;99.90;;;;;;5069526;28;20028;-82
2022/03/24 07:15:42;;;;;;;21.50;10.43;;;5.50;99.90;;;;;;5068445;28;20077;-82
2022/03/24 07:18:08;;;;;;;20.30;9.90;;;5.60;99.90;;;;;;5065218;28;20476;-82
2022/03/24 07:20:35;;;;;;;18.93;10.23;;;5.70;99.90;;;;;;5057328;28;20045;-82
2022/03/24 07:23:03;;;;;;;19.87;10.50;;;5.70;99.90;;;;;;5067178;28;20040;-82
2022/03/24 07:25:30;;;;;;;18.83;10.10;;;5.80;99.90;;;;;;5054054;28;20037;-82
2022/03/24 07:27:57;;;;;;;18.13;9.87;;;5.80;99.40;;;;;;5067741;28;20062;-83
2022/03/24 07:30:22;;;;;;;17.47;9.50;;;5.90;99.40;;;;;;5060302;28;20107;-83
2022/03/24 07:32:48;;;;;;;15.23;8.83;;;5.90;99.20;;;;;;5060707;28;20096;-83
2022/03/24 07:35:15;;;;;;;18.23;8.90;;;6.00;99.10;;;;;;5067858;28;20024;-83
2022/03/24 07:37:43;;;;;;;20.70;9.43;;;6.10;98.70;;;;;;5054312;28;20030;-83
2022/03/24 07:40:09;;;;;;;17.57;9.13;;;6.20;98.70;;;;;;5064443;28;20045;-82
2022/03/24 07:42:36;;;;;;;16.80;9.10;;;6.20;98.00;;;;;;5062801;28;20025;-84
2022/03/24 07:45:01;;;;;;;17.53;9.20;;;6.40;97.60;;;;;;5057786;28;20497;-84
2022/03/24 07:47:27;;;;;;;18.97;9.57;;;6.40;97.50;;;;;;5067348;28;20052;-84
2022/03/24 07:49:53;;;;;;;20.00;9.63;;;6.60;97.90;;;;;;5056401;28;20024;-84
2022/03/24 07:52:19;;;;;;;17.67;8.87;;;6.60;97.60;;;;;;5059826;28;20033;-85
2022/03/24 07:54:56;;;;;;;17.40;9.10;;;6.70;97.50;;;;;;5070697;28;20028;-85
2022/03/24 07:57:24;;;;;;;18.43;9.00;;;6.80;96.90;;;;;;5055243;28;20026;-83
2022/03/24 07:59:50;;;;;;;18.57;9.30;;;6.90;96.50;;;;;;5066735;28;20116;-83
2022/03/24 08:02:17;;;;;;;21.97;9.20;;;6.90;96.40;;;;;;5060096;28;20119;-83
2022/03/24 08:04:43;;;;;;;20.23;9.70;;;7.10;96.10;;;;;;5058604;28;20025;-83
2022/03/24 08:07:08;;;;;;;19.53;9.23;;;7.20;96.00;;;;;;5066137;28;20031;-83
2022/03/24 08:09:34;;;;;;;17.17;8.97;;;7.30;95.60;;;;;;5053761;28;20032;-83
2022/03/24 08:12:00;;;;;;;17.03;9.37;;;7.40;95.30;;;;;;5064684;28;20028;-83
2022/03/24 08:14:26;;;;;;;22.17;10.45;;;7.50;94.90;;;;;;5060210;28;20024;-83
2022/03/24 08:16:52;;;;;;;18.50;9.27;;;7.50;94.60;;;;;;5071025;28;20025;-83
2022/03/24 08:19:17;;;;;;;20.65;10.15;;;7.50;94.50;;;;;;5064398;28;20044;-83
2022/03/24 08:21:43;;;;;;;20.88;10.25;;;7.60;93.60;;;;;;5061991;28;20020;-83
2022/03/24 08:24:09;;;;;;;19.67;9.85;;;7.80;93.50;;;;;;5067715;28;20029;-83
2022/03/24 08:26:35;;;;;;;19.90;9.47;;;7.80;93.30;;;;;;5064008;28;20028;-83
2022/03/24 08:29:02;;;;;;;24.90;10.57;;;7.80;93.10;;;;;;5059718;28;20028;-82
2022/03/24 08:31:28;;;;;;;22.33;9.80;;;7.90;93.20;;;;;;5079366;28;20115;-81
2022/03/24 08:33:54;;;;;;;22.02;10.68;;;8.00;93.70;;;;;;5069447;28;20115;-79
2022/03/24 08:36:20;;;;;;;25.42;11.80;;;8.10;93.40;;;;;;5079141;28;20024;-80
2022/03/24 08:38:46;;;;;;;27.80;11.18;;;8.40;92.80;;;;;;5061261;28;20108;-83
2022/03/24 08:41:11;;;;;;;27.00;12.02;;;8.40;91.80;;;;;;5059571;28;20403;-82
2022/03/24 08:43:37;;;;;;;23.73;11.65;;;8.50;92.20;;;;;;5074265;28;20032;-81
2022/03/24 08:46:03;;;;;;;25.42;12.02;;;8.60;90.50;;;;;;5052314;28;20050;-82
2022/03/24 08:48:29;;;;;;;27.65;12.52;;;8.60;89.10;;;;;;5054369;28;20023;-83
2022/03/24 08:50:55;;;;;;;34.53;13.43;;;8.70;86.80;;;;;;5057524;28;20029;-82
2022/03/24 08:53:22;;;;;;;29.63;12.55;;;8.90;85.80;;;;;;5055544;28;20029;-83
2022/03/24 08:55:48;;;;;;;29.95;13.23;;;8.90;85.50;;;;;;5056976;28;20031;-83
2022/03/24 08:58:18;;;;;;;26.42;11.88;;;9.10;84.90;;;;;;5055028;28;20111;-85
2022/03/24 09:00:45;;;;;;;24.02;12.15;;;9.20;81.70;;;;;;5052419;28;20027;-82
2022/03/24 09:03:11;;;;;;;27.48;13.18;;;9.30;79.60;;;;;;5055300;28;20149;-84
2022/03/24 09:05:36;;;;;;;30.85;13.25;;;9.40;79.30;;;;;;5056256;28;20064;-83
2022/03/24 09:08:02;;;;;;;29.08;13.52;;;9.40;78.60;;;;;;5053885;28;20028;-83
2022/03/24 09:10:28;;;;;;;28.77;14.25;;;9.50;81.50;;;;;;5052845;28;20027;-84
2022/03/24 09:12:53;;;;;;;27.50;13.05;;;9.50;77.40;;;;;;5071513;28;20025;-84
2022/03/24 09:15:19;;;;;;;25.35;12.75;;;9.50;78.90;;;;;;5053997;28;20028;-87
2022/03/24 09:17:46;;;;;;;30.88;12.68;;;9.50;80.30;;;;;;5053993;28;20028;-86
2022/03/24 09:20:15;;;;;;;25.63;11.98;;;9.50;79.30;;;;;;5050895;28;20315;-84
2022/03/24 09:22:43;;;;;;;24.90;11.80;;;9.50;78.50;;;;;;5053068;28;20047;-82
2022/03/24 09:25:10;;;;;;;27.15;13.35;;;9.60;78.30;;;;;;5066661;28;20457;-85
2022/03/24 09:27:37;;;;;;;24.13;12.68;;;9.70;77.90;;;;;;5052620;28;20480;-84
2022/03/24 09:30:04;;;;;;;25.08;12.82;;;9.70;77.10;;;;;;5074397;28;20128;-83
2022/03/24 09:32:31;;;;;;;29.70;13.32;;;9.90;77.80;;;;;;5067126;28;20269;-84
2022/03/24 09:34:57;;;;;;;29.13;12.88;;;9.80;77.70;;;;;;5071459;28;20020;-84
2022/03/24 09:37:22;;;;;;;28.77;12.13;;;9.80;76.40;;;;;;5054706;28;20025;-82
2022/03/24 09:39:50;;;;;;;22.90;11.82;;;9.90;76.50;;;;;;5053511;28;20028;-83
2022/03/24 09:42:17;;;;;;;24.60;12.32;;;9.90;74.90;;;;;;5074295;28;20056;-82
2022/03/24 09:44:45;;;;;;;21.52;12.30;;;9.90;75.00;;;;;;5052781;28;20040;-82
2022/03/24 09:47:12;;;;;;;27.95;12.65;;;10.00;75.10;;;;;;5074360;28;20175;-82
2022/03/24 09:49:41;;;;;;;23.33;12.35;;;10.10;75.00;;;;;;5057748;28;20077;-83
2022/03/24 09:52:12;;;;;;;25.65;12.38;;;10.10;74.60;;;;;;5075506;28;20123;-81
2022/03/24 09:54:39;;;;;;;23.83;11.48;;;10.10;74.60;;;;;;5073989;28;20028;-83
2022/03/24 09:57:07;;;;;;;25.02;11.68;;;10.30;73.00;;;;;;5057971;28;20124;-83
2022/03/24 09:59:32;;;;;;;24.00;11.93;;;10.40;72.60;;;;;;5057545;28;20469;-81
2022/03/24 10:02:01;;;;;;;27.00;12.30;;;10.50;71.80;;;;;;5057388;28;20028;-80
2022/03/24 10:04:26;;;;;;;28.10;11.48;;;10.60;71.10;;;;;;5057938;28;20115;-82
2022/03/24 10:07:03;;;;;;;23.60;11.68;;;10.70;70.10;;;;;;5059921;28;20178;-85
2022/03/24 10:09:38;;;;;;;27.63;12.60;;;10.90;69.30;;;;;;5057781;28;20067;-82
2022/03/24 10:12:05;;;;;;;30.15;12.48;;;11.00;69.10;;;;;;5062555;28;20024;-82
2022/03/24 10:14:30;;;;;;;27.33;12.60;;;11.10;68.30;;;;;;5084562;28;20291;-83
2022/03/24 10:17:06;;;;;;;24.52;12.40;;;11.10;67.80;;;;;;5074746;28;20036;-81
2022/03/24 10:19:31;;;;;;;26.08;11.80;;;11.10;67.40;;;;;;5076491;28;20178;-83
2022/03/24 10:21:57;;;;;;;29.23;14.75;;;11.30;66.20;;;;;;5059660;28;20115;-83
2022/03/24 10:24:24;;;;;;;32.20;14.98;;;11.20;65.70;;;;;;5063328;28;20538;-83
2022/03/24 10:27:04;;;;;;;32.72;16.52;;;11.40;64.80;;;;;;5061075;28;20036;-82
2022/03/24 10:29:32;;;;;;;27.40;12.88;;;11.40;64.30;;;;;;5075243;28;20414;-85
2022/03/24 10:32:00;;;;;;;26.77;12.45;;;11.50;62.90;;;;;;5060807;28;20067;-85
2022/03/24 10:34:41;;;;;;;31.45;12.50;;;11.70;62.40;;;;;;5059946;28;20502;-79
2022/03/24 10:37:13;;;;;;;22.73;11.45;;;11.60;62.20;;;;;;5057074;28;20024;-79
2022/03/24 10:39:40;;;;;;;;;;;11.70;62.50;;;;;;5084451;28;20089;-83
2022/03/24 10:42:15;;;;;;;24.73;11.60;;;11.80;61.90;;;;;;5084922;28;19934;-87
2022/03/24 10:45:18;;;;;;;22.40;11.40;;;11.70;62.40;;;;;;5058210;28;20032;-83
2022/03/24 10:47:51;;;;;;;24.17;11.32;;;11.70;63.20;;;;;;5076855;28;20027;-81
2022/03/24 10:50:32;;;;;;;26.17;12.02;;;11.80;62.50;;;;;;5059070;28;20024;-80
2022/03/24 10:53:19;;;;;;;27.23;11.30;;;11.90;60.90;;;;;;5061501;28;20032;-80
2022/03/24 10:55:46;;;;;;;23.25;10.93;;;12.10;59.90;;;;;;5055180;28;20035;-80
2022/03/24 10:58:27;;;;;;;23.92;12.02;;;12.10;58.30;;;;;;5065275;28;20021;-81
2022/03/24 11:00:57;;;;;;;22.65;10.93;;;12.20;57.40;;;;;;5060630;28;20024;-82
2022/03/24 11:03:23;;;;;;;21.92;10.82;;;12.30;57.10;;;;;;5084003;28;20024;-82
2022/03/24 11:05:49;;;;;;;20.90;10.27;;;12.30;56.60;;;;;;5061367;28;20024;-86
2022/03/24 11:08:17;;;;;;;20.60;10.48;;;12.50;54.10;;;;;;5067669;28;20028;-88
2022/03/24 11:10:47;;;;;;;28.30;11.52;;;12.70;54.10;;;;;;5081345;28;20027;-88
2022/03/24 11:13:45;;;;;;;20.08;10.10;;;12.80;53.40;;;;;;5081583;28;20024;-84
2022/03/24 11:16:12;;;;;;;21.70;10.93;;;13.00;53.10;;;;;;5055295;28;20157;-81
2022/03/24 11:18:38;;;;;;;27.48;11.65;;;13.20;51.90;;;;;;5065320;28;20488;-81
2022/03/24 11:21:43;;;;;;;19.23;10.75;;;13.40;52.10;;;;;;5064445;28;20031;-82
2022/03/24 11:24:09;;;;;;;21.23;11.75;;;13.60;52.00;;;;;;5031313;28;20048;-83
2022/03/24 11:26:35;;;;;;;23.77;12.27;;;13.60;51.60;;;;;;5063873;28;20034;-86
2022/03/24 11:29:02;;;;;;;26.05;11.90;;;13.60;53.00;;;;;;5063647;28;20477;-85
2022/03/24 11:31:28;;;;;;;23.98;11.68;;;13.80;52.50;;;;;;5080601;28;20115;-85
2022/03/24 11:33:56;;;;;;;23.45;12.65;;;13.90;52.80;;;;;;5066515;28;20078;-84
2022/03/24 11:36:23;;;;;;;26.48;12.82;;;13.90;52.70;;;;;;5063251;28;20032;-82
2022/03/24 11:38:52;;;;;;;20.60;11.75;;;14.00;54.00;;;;;;5065488;28;20024;-82
2022/03/24 11:41:43;;;;;;;26.08;12.55;;;14.00;52.80;;;;;;5065498;28;20111;-81
2022/03/24 11:44:48;;;;;;;23.23;12.30;;;13.90;53.30;;;;;;5061268;28;20032;-81
2022/03/24 11:47:15;;;;;;;23.92;12.25;;;14.30;51.50;;;;;;5033836;28;20089;-80
2022/03/24 11:49:42;;;;;;;25.05;12.73;;;14.40;52.10;;;;;;5057419;28;20032;-80
2022/03/24 11:52:07;;;;;;;25.95;13.52;;;14.40;52.30;;;;;;5063482;28;20028;-79
2022/03/24 11:54:38;;;;;;;25.17;12.95;;;14.40;51.70;;;;;;5061660;28;20039;-81
2022/03/24 11:57:33;;;;;;;22.65;11.65;;;14.30;51.70;;;;;;5080369;28;20518;-83
2022/03/24 12:00:14;;;;;;;23.55;12.82;;;14.50;51.10;;;;;;5055855;28;20059;-79
2022/03/24 12:02:43;;;;;;;23.92;12.88;;;14.50;51.10;;;;;;5061504;28;20093;-78
2022/03/24 12:05:10;;;;;;;23.95;11.95;;;14.60;51.50;;;;;;5062018;28;20035;-79
2022/03/24 12:07:36;;;;;;;21.83;12.32;;;14.80;51.10;;;;;;5064322;28;20029;-78
2022/03/24 12:10:04;;;;;;;25.95;13.00;;;14.90;51.30;;;;;;5083470;28;20020;-78
2022/03/24 12:12:30;;;;;;;23.83;12.60;;;15.00;50.50;;;;;;5063645;28;20357;-78
2022/03/24 12:14:58;;;;;;;20.65;11.23;;;15.00;50.60;;;;;;5064636;28;20072;-78
2022/03/24 12:17:33;;;;;;;21.73;11.40;;;15.20;50.90;;;;;;5062449;28;20358;-77
2022/03/24 12:20:01;;;;;;;23.38;11.57;;;15.50;49.30;;;;;;5064476;28;20094;-78
2022/03/24 12:22:28;;;;;;;22.42;11.85;;;15.80;49.00;;;;;;5079408;28;20450;-78
2022/03/24 12:25:00;;;;;;;24.50;12.13;;;15.90;50.10;;;;;;5067744;28;20530;-78
2022/03/24 12:27:32;;;;;;;;;;;16.10;48.20;;;;;;5080341;28;20016;-78
2022/03/24 12:30:16;;;;;;;21.85;11.50;;;16.30;46.00;;;;;;5063948;28;20264;-75
2022/03/24 12:32:44;;;;;;;20.75;10.98;;;16.50;47.30;;;;;;5054929;28;20524;-75
2022/03/24 12:35:40;;;;;;;22.52;11.40;;;16.70;46.40;;;;;;5081847;28;20050;-75
2022/03/24 12:38:20;;;;;;;18.88;10.82;;;17.00;43.70;;;;;;5058435;28;20016;-76
2022/03/24 12:41:06;;;;;;;21.95;12.15;;;17.20;42.90;;;;;;5052049;28;20032;-74
2022/03/24 12:43:51;;;;;;;25.77;12.07;;;17.60;43.70;;;;;;5058021;28;20545;-75
2022/03/24 12:46:34;;;;;;;18.38;10.68;;;17.80;43.30;;;;;;5052788;28;20037;-76